sensor_id;sensor_type;location;lat;lon;timestamp;pressure;altitude;pressure_sealevel;temperature;humidity
39789;BME280;25478;42.626;23.320;2023-07-13T00:00:12;93461.44;;;21.92;58.34
39789;BME280;25478;42.626;23.320;2023-07-13T00:02:42;93472.59;;;21.90;58.80
39789;BME280;25478;42.626;23.320;2023-07-13T00:05:07;93468.13;;;21.87;58.96
39789;BME280;25478;42.626;23.320;2023-07-13T00:07:34;93467.38;;;21.87;59.06
39789;BME280;25478;42.626;23.320;2023-07-13T00:09:59;93456.31;;;21.85;59.22
39789;BME280;25478;42.626;23.320;2023-07-13T00:12:37;93459.44;;;21.83;59.28
39789;BME280;25478;42.626;23.320;2023-07-13T00:15:06;93460.63;;;21.82;59.94
39789;BME280;25478;42.626;23.320;2023-07-13T00:17:33;93449.28;;;21.78;60.16
39789;BME280;25478;42.626;23.320;2023-07-13T00:19:58;93453.13;;;21.77;60.43
39789;BME280;25478;42.626;23.320;2023-07-13T00:22:24;93440.00;;;21.70;60.35
39789;BME280;25478;42.626;23.320;2023-07-13T00:24:53;93431.56;;;21.59;60.53
39789;BME280;25478;42.626;23.320;2023-07-13T00:27:22;93453.50;;;21.67;61.26
39789;BME280;25478;42.626;23.320;2023-07-13T00:29:47;93444.41;;;21.64;61.77
39789;BME280;25478;42.626;23.320;2023-07-13T00:32:13;93427.78;;;21.47;62.35
39789;BME280;25478;42.626;23.320;2023-07-13T00:34:39;93446.91;;;21.58;62.75
39789;BME280;25478;42.626;23.320;2023-07-13T00:37:06;93451.50;;;21.58;62.92
39789;BME280;25478;42.626;23.320;2023-07-13T00:39:34;93441.03;;;21.51;62.90
39789;BME280;25478;42.626;23.320;2023-07-13T00:42:01;93445.53;;;21.54;62.88
39789;BME280;25478;42.626;23.320;2023-07-13T00:44:27;93428.88;;;21.37;63.38
39789;BME280;25478;42.626;23.320;2023-07-13T00:46:53;93448.00;;;21.48;63.69
39789;BME280;25478;42.626;23.320;2023-07-13T00:49:24;93441.25;;;21.44;64.16
39789;BME280;25478;42.626;23.320;2023-07-13T00:51:54;93452.84;;;21.41;64.85
39789;BME280;25478;42.626;23.320;2023-07-13T00:54:32;93441.63;;;21.33;65.80
39789;BME280;25478;42.626;23.320;2023-07-13T00:57:01;93440.78;;;21.23;66.54
39789;BME280;25478;42.626;23.320;2023-07-13T00:59:29;93439.06;;;21.17;66.83
39789;BME280;25478;42.626;23.320;2023-07-13T01:01:55;93432.44;;;21.08;67.33
39789;BME280;25478;42.626;23.320;2023-07-13T01:04:24;93429.47;;;21.06;67.56
39789;BME280;25478;42.626;23.320;2023-07-13T01:06:50;93428.06;;;21.02;68.17
39789;BME280;25478;42.626;23.320;2023-07-13T01:09:16;93420.47;;;21.00;67.93
39789;BME280;25478;42.626;23.320;2023-07-13T01:11:41;93421.34;;;20.97;67.57
39789;BME280;25478;42.626;23.320;2023-07-13T01:14:08;93423.28;;;20.97;67.98
39789;BME280;25478;42.626;23.320;2023-07-13T01:16:35;93421.34;;;20.97;67.46
39789;BME280;25478;42.626;23.320;2023-07-13T01:19:03;93421.34;;;20.97;67.17
39789;BME280;25478;42.626;23.320;2023-07-13T01:21:32;93428.19;;;20.98;67.37
39789;BME280;25478;42.626;23.320;2023-07-13T01:23:58;93429.81;;;20.96;67.24
39789;BME280;25478;42.626;23.320;2023-07-13T01:26:24;93426.03;;;20.93;67.53
39789;BME280;25478;42.626;23.320;2023-07-13T01:28:49;93426.91;;;20.90;67.78
39789;BME280;25478;42.626;23.320;2023-07-13T01:31:15;93421.69;;;20.87;67.69
39789;BME280;25478;42.626;23.320;2023-07-13T01:33:41;93411.22;;;20.79;67.96
39789;BME280;25478;42.626;23.320;2023-07-13T01:36:07;93419.09;;;20.83;68.03
39789;BME280;25478;42.626;23.320;2023-07-13T01:38:35;93416.88;;;20.82;68.04
39789;BME280;25478;42.626;23.320;2023-07-13T01:41:02;93416.88;;;20.82;66.55
39789;BME280;25478;42.626;23.320;2023-07-13T01:43:27;93423.28;;;20.84;67.15
39789;BME280;25478;42.626;23.320;2023-07-13T01:45:53;93395.06;;;20.70;67.23
39789;BME280;25478;42.626;23.320;2023-07-13T01:48:19;93424.03;;;20.85;67.56
39789;BME280;25478;42.626;23.320;2023-07-13T01:50:47;93422.53;;;20.84;68.15
39789;BME280;25478;42.626;23.320;2023-07-13T01:53:13;93419.22;;;20.79;68.48
39789;BME280;25478;42.626;23.320;2023-07-13T01:55:38;93418.06;;;20.80;68.47
39789;BME280;25478;42.626;23.320;2023-07-13T01:58:05;93412.81;;;20.77;68.76
39789;BME280;25478;42.626;23.320;2023-07-13T02:00:30;93417.09;;;20.74;69.23
39789;BME280;25478;42.626;23.320;2023-07-13T02:02:56;93422.88;;;20.73;69.66
39789;BME280;25478;42.626;23.320;2023-07-13T02:05:22;93418.03;;;20.68;69.93
39789;BME280;25478;42.626;23.320;2023-07-13T02:07:48;93420.09;;;20.64;70.61
39789;BME280;25478;42.626;23.320;2023-07-13T02:10:14;93424.38;;;20.61;70.50
39789;BME280;25478;42.626;23.320;2023-07-13T02:12:40;93424.47;;;20.58;71.06
39789;BME280;25478;42.626;23.320;2023-07-13T02:15:06;93420.88;;;20.51;71.47
39789;BME280;25478;42.626;23.320;2023-07-13T02:17:32;93423.53;;;20.51;71.79
39789;BME280;25478;42.626;23.320;2023-07-13T02:19:58;93427.78;;;20.49;71.87
39789;BME280;25478;42.626;23.320;2023-07-13T02:22:23;93423.31;;;20.46;72.41
39789;BME280;25478;42.626;23.320;2023-07-13T02:24:49;93413.88;;;20.41;72.61
39789;BME280;25478;42.626;23.320;2023-07-13T02:27:17;93423.06;;;20.40;73.11
39789;BME280;25478;42.626;23.320;2023-07-13T02:29:43;93416.97;;;20.27;73.28
39789;BME280;25478;42.626;23.320;2023-07-13T02:32:08;93430.53;;;20.33;73.13
39789;BME280;25478;42.626;23.320;2023-07-13T02:34:34;93438.25;;;20.31;73.43
39789;BME280;25478;42.626;23.320;2023-07-13T02:37:00;93435.34;;;20.25;73.62
39789;BME280;25478;42.626;23.320;2023-07-13T02:39:25;93432.34;;;20.23;73.51
39789;BME280;25478;42.626;23.320;2023-07-13T02:41:51;93429.69;;;20.23;73.54
39789;BME280;25478;42.626;23.320;2023-07-13T02:44:16;93435.47;;;20.21;73.62
39789;BME280;25478;42.626;23.320;2023-07-13T02:46:42;93432.78;;;20.21;73.47
39789;BME280;25478;42.626;23.320;2023-07-13T02:49:07;93427.13;;;20.19;73.55
39789;BME280;25478;42.626;23.320;2023-07-13T02:51:33;93438.56;;;20.20;73.52
39789;BME280;25478;42.626;23.320;2023-07-13T02:54:01;93420.91;;;20.10;73.71
39789;BME280;25478;42.626;23.320;2023-07-13T02:56:28;93433.72;;;20.15;73.68
39789;BME280;25478;42.626;23.320;2023-07-13T02:58:54;93428.16;;;20.09;73.81
39789;BME280;25478;42.626;23.320;2023-07-13T03:01:21;93423.59;;;20.10;74.08
39789;BME280;25478;42.626;23.320;2023-07-13T03:03:48;93420.38;;;20.02;73.66
39789;BME280;25478;42.626;23.320;2023-07-13T03:06:14;93441.44;;;20.13;74.19
39789;BME280;25478;42.626;23.320;2023-07-13T03:08:48;93415.75;;;20.03;74.63
39789;BME280;25478;42.626;23.320;2023-07-13T03:11:19;93438.75;;;20.13;74.60
39789;BME280;25478;42.626;23.320;2023-07-13T03:13:49;93438.44;;;20.11;74.30
39789;BME280;25478;42.626;23.320;2023-07-13T03:16:15;93438.75;;;20.13;74.64
39789;BME280;25478;42.626;23.320;2023-07-13T03:18:42;93428.59;;;20.08;74.14
39789;BME280;25478;42.626;23.320;2023-07-13T03:21:10;93441.31;;;20.16;74.46
39789;BME280;25478;42.626;23.320;2023-07-13T03:23:36;93432.25;;;20.14;74.16
39789;BME280;25478;42.626;23.320;2023-07-13T03:26:07;93446.47;;;20.23;73.73
39789;BME280;25478;42.626;23.320;2023-07-13T03:28:33;93436.22;;;20.22;72.97
39789;BME280;25478;42.626;23.320;2023-07-13T03:33:26;93448.75;;;20.38;73.38
39789;BME280;25478;42.626;23.320;2023-07-13T03:35:52;93450.53;;;20.41;74.11
39789;BME280;25478;42.626;23.320;2023-07-13T03:38:18;93447.06;;;20.44;74.24
39789;BME280;25478;42.626;23.320;2023-07-13T03:40:45;93443.97;;;20.45;74.51
39789;BME280;25478;42.626;23.320;2023-07-13T03:43:11;93447.25;;;20.49;74.39
39789;BME280;25478;42.626;23.320;2023-07-13T03:45:38;93436.38;;;20.44;74.94
39789;BME280;25478;42.626;23.320;2023-07-13T03:48:04;93449.28;;;20.58;75.42
39789;BME280;25478;42.626;23.320;2023-07-13T03:50:31;93443.09;;;20.61;75.50
39789;BME280;25478;42.626;23.320;2023-07-13T03:53:00;93447.16;;;20.66;75.67
39789;BME280;25478;42.626;23.320;2023-07-13T03:55:25;93440.97;;;20.69;76.53
39789;BME280;25478;42.626;23.320;2023-07-13T03:58:28;93438.91;;;20.73;76.32
39789;BME280;25478;42.626;23.320;2023-07-13T04:00:59;93438.72;;;20.80;77.03
39789;BME280;25478;42.626;23.320;2023-07-13T04:03:26;93434.63;;;20.88;76.63
39789;BME280;25478;42.626;23.320;2023-07-13T04:05:54;93451.66;;;20.94;76.99
39789;BME280;25478;42.626;23.320;2023-07-13T04:08:32;93448.84;;;20.98;77.11
39789;BME280;25478;42.626;23.320;2023-07-13T04:10:58;93442.66;;;20.88;76.77
39789;BME280;25478;42.626;23.320;2023-07-13T04:13:25;93441.13;;;21.00;77.62
39789;BME280;25478;42.626;23.320;2023-07-13T04:15:51;93446.91;;;21.11;77.81
39789;BME280;25478;42.626;23.320;2023-07-13T04:18:17;93446.25;;;21.20;78.24
39789;BME280;25478;42.626;23.320;2023-07-13T04:20:42;93425.88;;;21.22;78.08
39789;BME280;25478;42.626;23.320;2023-07-13T04:23:08;93442.34;;;21.46;78.15
39789;BME280;25478;42.626;23.320;2023-07-13T04:25:33;93435.00;;;21.59;78.67
39789;BME280;25478;42.626;23.320;2023-07-13T04:27:59;93448.22;;;21.76;78.50
39789;BME280;25478;42.626;23.320;2023-07-13T04:30:25;93446.84;;;21.93;77.83
39789;BME280;25478;42.626;23.320;2023-07-13T04:32:53;93448.28;;;22.07;78.10
39789;BME280;25478;42.626;23.320;2023-07-13T04:35:20;93460.47;;;22.21;79.35
39789;BME280;25478;42.626;23.320;2023-07-13T04:37:49;93457.78;;;22.21;80.31
39789;BME280;25478;42.626;23.320;2023-07-13T04:40:16;93448.38;;;22.16;80.01
39789;BME280;25478;42.626;23.320;2023-07-13T04:42:42;93458.66;;;22.17;79.52
39789;BME280;25478;42.626;23.320;2023-07-13T04:45:08;93467.44;;;22.18;79.94
39789;BME280;25478;42.626;23.320;2023-07-13T04:47:33;93467.75;;;22.20;79.11
39789;BME280;25478;42.626;23.320;2023-07-13T04:49:59;93470.91;;;22.28;78.29
39789;BME280;25478;42.626;23.320;2023-07-13T04:52:24;93471.28;;;22.39;77.24
39789;BME280;25478;42.626;23.320;2023-07-13T04:54:50;93464.50;;;22.56;76.19
39789;BME280;25478;42.626;23.320;2023-07-13T04:57:15;93472.19;;;22.76;74.84
39789;BME280;25478;42.626;23.320;2023-07-13T04:59:41;93465.16;;;23.00;73.53
39789;BME280;25478;42.626;23.320;2023-07-13T05:02:07;93460.16;;;23.30;72.43
39789;BME280;25478;42.626;23.320;2023-07-13T05:04:32;93477.38;;;23.69;72.92
39789;BME280;25478;42.626;23.320;2023-07-13T05:06:59;93479.91;;;23.91;73.64
39789;BME280;25478;42.626;23.320;2023-07-13T05:09:24;93482.44;;;24.04;73.52
39789;BME280;25478;42.626;23.320;2023-07-13T05:11:50;93481.97;;;24.24;73.17
39789;BME280;25478;42.626;23.320;2023-07-13T05:14:15;93481.47;;;24.53;72.15
39789;BME280;25478;42.626;23.320;2023-07-13T05:16:41;93481.38;;;24.89;70.14
39789;BME280;25478;42.626;23.320;2023-07-13T05:19:08;93487.47;;;25.32;68.48
39789;BME280;25478;42.626;23.320;2023-07-13T05:21:33;93498.25;;;25.56;66.44
39789;BME280;25478;42.626;23.320;2023-07-13T05:23:58;93489.03;;;25.63;65.33
39789;BME280;25478;42.626;23.320;2023-07-13T05:26:24;93496.47;;;25.77;64.78
39789;BME280;25478;42.626;23.320;2023-07-13T05:28:49;93494.66;;;25.98;64.63
39789;BME280;25478;42.626;23.320;2023-07-13T05:31:15;93494.22;;;26.29;62.84
39789;BME280;25478;42.626;23.320;2023-07-13T05:33:40;93499.69;;;26.58;60.88
39789;BME280;25478;42.626;23.320;2023-07-13T05:36:06;93498.06;;;26.81;59.28
39789;BME280;25478;42.626;23.320;2023-07-13T05:38:33;93496.00;;;27.06;57.79
39789;BME280;25478;42.626;23.320;2023-07-13T05:40:59;93500.63;;;27.20;57.40
39789;BME280;25478;42.626;23.320;2023-07-13T05:43:25;93498.59;;;27.50;56.45
39789;BME280;25478;42.626;23.320;2023-07-13T05:45:54;93507.19;;;27.69;54.58
39789;BME280;25478;42.626;23.320;2023-07-13T05:48:20;93497.88;;;27.70;54.65
39789;BME280;25478;42.626;23.320;2023-07-13T05:50:45;93506.09;;;27.81;54.97
39789;BME280;25478;42.626;23.320;2023-07-13T05:53:12;93501.84;;;27.95;53.96
39789;BME280;25478;42.626;23.320;2023-07-13T05:55:42;93487.66;;;28.00;52.50
39789;BME280;25478;42.626;23.320;2023-07-13T05:58:08;93504.00;;;28.11;52.16
39789;BME280;25478;42.626;23.320;2023-07-13T06:00:33;93502.84;;;28.18;51.12
39789;BME280;25478;42.626;23.320;2023-07-13T06:02:59;93497.19;;;28.21;48.73
39789;BME280;25478;42.626;23.320;2023-07-13T06:05:24;93489.31;;;28.18;48.48
39789;BME280;25478;42.626;23.320;2023-07-13T06:07:50;93487.47;;;28.29;49.21
39789;BME280;25478;42.626;23.320;2023-07-13T06:10:16;93480.47;;;28.43;48.55
39789;BME280;25478;42.626;23.320;2023-07-13T06:12:41;93477.00;;;28.74;46.80
39789;BME280;25478;42.626;23.320;2023-07-13T06:15:07;93480.03;;;29.13;44.94
39789;BME280;25478;42.626;23.320;2023-07-13T06:17:33;93484.56;;;29.33;44.74
39789;BME280;25478;42.626;23.320;2023-07-13T06:19:58;93494.13;;;29.23;44.73
39789;BME280;25478;42.626;23.320;2023-07-13T06:22:23;93508.56;;;29.09;44.94
39789;BME280;25478;42.626;23.320;2023-07-13T06:24:49;93512.00;;;29.04;44.42
39789;BME280;25478;42.626;23.320;2023-07-13T06:27:14;93512.66;;;28.93;45.47
39789;BME280;25478;42.626;23.320;2023-07-13T06:29:40;93514.16;;;28.94;46.05
39789;BME280;25478;42.626;23.320;2023-07-13T06:32:06;93507.28;;;28.99;45.86
39789;BME280;25478;42.626;23.320;2023-07-13T06:34:32;93500.72;;;29.11;46.41
39789;BME280;25478;42.626;23.320;2023-07-13T06:36:57;93497.09;;;29.25;46.20
39789;BME280;25478;42.626;23.320;2023-07-13T06:39:23;93500.88;;;29.39;45.97
39789;BME280;25478;42.626;23.320;2023-07-13T06:41:48;93501.56;;;29.34;44.56
39789;BME280;25478;42.626;23.320;2023-07-13T06:44:14;93498.03;;;29.16;44.77
39789;BME280;25478;42.626;23.320;2023-07-13T06:46:39;93507.88;;;29.14;44.91
39789;BME280;25478;42.626;23.320;2023-07-13T06:49:05;93501.66;;;29.08;46.43
39789;BME280;25478;42.626;23.320;2023-07-13T06:51:30;93501.78;;;29.25;46.70
39789;BME280;25478;42.626;23.320;2023-07-13T06:53:56;93499.25;;;29.53;46.34
39789;BME280;25478;42.626;23.320;2023-07-13T06:56:21;93498.81;;;29.65;44.39
39789;BME280;25478;42.626;23.320;2023-07-13T06:58:47;93491.88;;;29.59;45.02
39789;BME280;25478;42.626;23.320;2023-07-13T07:01:12;93494.13;;;29.66;44.43
39789;BME280;25478;42.626;23.320;2023-07-13T07:03:38;93499.56;;;29.60;44.79
39789;BME280;25478;42.626;23.320;2023-07-13T07:06:19;93501.25;;;29.58;45.24
39789;BME280;25478;42.626;23.320;2023-07-13T07:08:45;93499.72;;;29.51;44.27
39789;BME280;25478;42.626;23.320;2023-07-13T07:11:17;93495.69;;;29.78;43.56
39789;BME280;25478;42.626;23.320;2023-07-13T07:13:43;93499.66;;;29.88;43.28
39789;BME280;25478;42.626;23.320;2023-07-13T07:16:08;93502.63;;;29.90;42.59
39789;BME280;25478;42.626;23.320;2023-07-13T07:18:34;93500.66;;;29.91;42.77
39789;BME280;25478;42.626;23.320;2023-07-13T07:21:00;93503.34;;;29.85;44.54
39789;BME280;25478;42.626;23.320;2023-07-13T07:23:26;93506.38;;;30.04;44.25
39789;BME280;25478;42.626;23.320;2023-07-13T07:25:51;93489.41;;;30.20;44.22
39789;BME280;25478;42.626;23.320;2023-07-13T07:28:17;93482.56;;;30.53;43.42
39789;BME280;25478;42.626;23.320;2023-07-13T07:30:47;93499.13;;;30.72;42.54
39789;BME280;25478;42.626;23.320;2023-07-13T07:33:13;93497.38;;;30.58;42.60
39789;BME280;25478;42.626;23.320;2023-07-13T07:35:39;93492.19;;;30.60;42.81
39789;BME280;25478;42.626;23.320;2023-07-13T07:38:04;93489.72;;;30.62;42.45
39789;BME280;25478;42.626;23.320;2023-07-13T07:40:31;93488.03;;;30.70;42.85
39789;BME280;25478;42.626;23.320;2023-07-13T07:42:57;93491.97;;;30.80;42.61
39789;BME280;25478;42.626;23.320;2023-07-13T07:45:23;93474.19;;;30.73;42.84
39789;BME280;25478;42.626;23.320;2023-07-13T07:47:49;93478.38;;;30.91;42.73
39789;BME280;25478;42.626;23.320;2023-07-13T07:50:14;93463.03;;;31.10;41.77
39789;BME280;25478;42.626;23.320;2023-07-13T07:52:40;93476.59;;;31.38;41.19
39789;BME280;25478;42.626;23.320;2023-07-13T07:55:07;93477.09;;;31.37;40.76
39789;BME280;25478;42.626;23.320;2023-07-13T07:57:32;93480.03;;;31.45;40.73
39789;BME280;25478;42.626;23.320;2023-07-13T07:59:58;93477.56;;;31.47;40.58
39789;BME280;25478;42.626;23.320;2023-07-13T08:02:24;93483.78;;;31.30;40.22
39789;BME280;25478;42.626;23.320;2023-07-13T08:04:50;93474.16;;;31.13;40.51
39789;BME280;25478;42.626;23.320;2023-07-13T08:07:15;93467.97;;;31.18;40.46
39789;BME280;25478;42.626;23.320;2023-07-13T08:09:41;93457.34;;;31.31;40.64
39789;BME280;25478;42.626;23.320;2023-07-13T08:12:07;93459.03;;;31.40;40.57
39789;BME280;25478;42.626;23.320;2023-07-13T08:14:32;93460.50;;;31.46;40.04
39789;BME280;25478;42.626;23.320;2023-07-13T08:16:58;93456.31;;;31.45;40.52
39789;BME280;25478;42.626;23.320;2023-07-13T08:19:23;93456.31;;;31.45;40.55
39789;BME280;25478;42.626;23.320;2023-07-13T08:21:49;93446.72;;;31.22;40.48
39789;BME280;25478;42.626;23.320;2023-07-13T08:24:16;93442.28;;;31.07;41.21
39789;BME280;25478;42.626;23.320;2023-07-13T08:26:44;93449.22;;;30.97;41.53
39789;BME280;25478;42.626;23.320;2023-07-13T08:29:10;93448.97;;;30.90;42.18
39789;BME280;25478;42.626;23.320;2023-07-13T08:31:36;93450.22;;;30.83;42.20
39789;BME280;25478;42.626;23.320;2023-07-13T08:34:01;93432.94;;;30.75;42.54
39789;BME280;25478;42.626;23.320;2023-07-13T08:36:28;93448.00;;;30.87;42.39
39789;BME280;25478;42.626;23.320;2023-07-13T08:38:54;93451.94;;;30.97;41.93
39789;BME280;25478;42.626;23.320;2023-07-13T08:41:20;93444.25;;;31.01;41.97
39789;BME280;25478;42.626;23.320;2023-07-13T08:43:48;93437.34;;;31.00;41.95
39789;BME280;25478;42.626;23.320;2023-07-13T08:46:44;93438.56;;;31.22;42.15
39789;BME280;25478;42.626;23.320;2023-07-13T08:49:16;93443.97;;;31.27;41.01
39789;BME280;25478;42.626;23.320;2023-07-13T08:51:47;93434.34;;;31.32;40.86
39789;BME280;25478;42.626;23.320;2023-07-13T08:54:29;93445.44;;;31.34;40.71
39789;BME280;25478;42.626;23.320;2023-07-13T08:56:58;93410.38;;;31.14;40.50
39789;BME280;25478;42.626;23.320;2023-07-13T08:59:30;93450.88;;;31.40;41.11
39789;BME280;25478;42.626;23.320;2023-07-13T09:04:46;93456.09;;;31.37;40.87
39789;BME280;25478;42.626;23.320;2023-07-13T09:10:06;93471.91;;;31.39;38.97
39789;BME280;25478;42.626;23.320;2023-07-13T09:12:44;93480.31;;;31.35;38.60
39789;BME280;25478;42.626;23.320;2023-07-13T09:15:39;93481.81;;;31.36;39.38
39789;BME280;25478;42.626;23.320;2023-07-13T09:18:32;93482.81;;;31.22;38.82
39789;BME280;25478;42.626;23.320;2023-07-13T09:21:03;93487.00;;;31.18;38.00
39789;BME280;25478;42.626;23.320;2023-07-13T09:23:31;93487.03;;;31.12;37.70
39789;BME280;25478;42.626;23.320;2023-07-13T09:26:06;93488.00;;;31.15;38.25
39789;BME280;25478;42.626;23.320;2023-07-13T09:28:44;93483.56;;;31.12;38.06
39789;BME280;25478;42.626;23.320;2023-07-13T09:31:14;93488.72;;;31.26;37.62
39789;BME280;25478;42.626;23.320;2023-07-13T09:33:40;93489.19;;;31.36;38.02
39789;BME280;25478;42.626;23.320;2023-07-13T09:36:28;93488.47;;;31.41;37.78
39789;BME280;25478;42.626;23.320;2023-07-13T09:39:10;93480.53;;;31.43;37.87
39789;BME280;25478;42.626;23.320;2023-07-13T09:41:49;93475.09;;;31.49;37.10
39789;BME280;25478;42.626;23.320;2023-07-13T09:44:18;93479.28;;;31.50;37.19
39789;BME280;25478;42.626;23.320;2023-07-13T09:46:54;93465.00;;;31.38;37.67
39789;BME280;25478;42.626;23.320;2023-07-13T09:49:27;93460.75;;;31.43;36.96
39789;BME280;25478;42.626;23.320;2023-07-13T09:52:03;93462.72;;;31.48;36.83
39789;BME280;25478;42.626;23.320;2023-07-13T09:54:32;93458.03;;;31.48;36.21
39789;BME280;25478;42.626;23.320;2023-07-13T09:56:59;93449.59;;;31.57;36.77
39789;BME280;25478;42.626;23.320;2023-07-13T09:59:40;93440.16;;;31.64;36.66
39789;BME280;25478;42.626;23.320;2023-07-13T10:02:35;93450.03;;;31.73;36.89
39789;BME280;25478;42.626;23.320;2023-07-13T10:05:06;93446.81;;;31.80;36.58
39789;BME280;25478;42.626;23.320;2023-07-13T10:07:39;93445.03;;;31.88;36.67
39789;BME280;25478;42.626;23.320;2023-07-13T10:10:15;93431.84;;;31.98;37.18
39789;BME280;25478;42.626;23.320;2023-07-13T10:12:41;93434.00;;;32.10;36.78
39789;BME280;25478;42.626;23.320;2023-07-13T10:15:10;93432.50;;;32.15;35.80
39789;BME280;25478;42.626;23.320;2023-07-13T10:17:39;93415.94;;;32.13;36.28
39789;BME280;25478;42.626;23.320;2023-07-13T10:20:05;93437.59;;;32.30;35.56
39789;BME280;25478;42.626;23.320;2023-07-13T10:22:50;93431.88;;;32.39;35.69
39789;BME280;25478;42.626;23.320;2023-07-13T10:25:18;93433.81;;;32.44;35.04
39789;BME280;25478;42.626;23.320;2023-07-13T10:27:45;93418.53;;;32.30;34.10
39789;BME280;25478;42.626;23.320;2023-07-13T10:30:21;93427.94;;;32.34;34.79
39789;BME280;25478;42.626;23.320;2023-07-13T10:32:51;93424.16;;;32.43;35.79
39789;BME280;25478;42.626;23.320;2023-07-13T10:35:19;93425.31;;;32.53;36.02
39789;BME280;25478;42.626;23.320;2023-07-13T10:37:57;93430.72;;;32.59;35.41
39789;BME280;25478;42.626;23.320;2023-07-13T10:40:40;93420.53;;;32.65;34.88
39789;BME280;25478;42.626;23.320;2023-07-13T10:45:40;93409.94;;;32.86;34.67
39789;BME280;25478;42.626;23.320;2023-07-13T10:48:11;93406.16;;;32.94;34.89
39789;BME280;25478;42.626;23.320;2023-07-13T10:50:40;93393.53;;;32.91;35.02
39789;BME280;25478;42.626;23.320;2023-07-13T10:53:27;93399.56;;;33.09;35.39
39789;BME280;25478;42.626;23.320;2023-07-13T11:00:56;93398.53;;;33.12;33.42
39789;BME280;25478;42.626;23.320;2023-07-13T11:03:23;93394.78;;;33.15;33.31
39789;BME280;25478;42.626;23.320;2023-07-13T11:06:09;93385.78;;;33.20;32.66
39789;BME280;25478;42.626;23.320;2023-07-13T11:08:50;93378.28;;;33.26;32.30
39789;BME280;25478;42.626;23.320;2023-07-13T11:18:52;93365.19;;;33.24;34.19
39789;BME280;25478;42.626;23.320;2023-07-13T11:21:23;93357.94;;;33.27;34.44
39789;BME280;25478;42.626;23.320;2023-07-13T11:23:53;93347.72;;;33.33;33.91
39789;BME280;25478;42.626;23.320;2023-07-13T11:29:24;93356.75;;;33.47;33.48
39789;BME280;25478;42.626;23.320;2023-07-13T11:31:53;93352.19;;;33.55;33.47
39789;BME280;25478;42.626;23.320;2023-07-13T11:34:27;93351.09;;;33.64;32.93
39789;BME280;25478;42.626;23.320;2023-07-13T11:36:56;93349.31;;;33.66;32.65
39789;BME280;25478;42.626;23.320;2023-07-13T11:39:35;93348.25;;;33.69;33.10
39789;BME280;25478;42.626;23.320;2023-07-13T11:42:12;93354.38;;;33.75;32.17
39789;BME280;25478;42.626;23.320;2023-07-13T11:44:43;93344.22;;;33.76;32.26
39789;BME280;25478;42.626;23.320;2023-07-13T11:47:20;93343.09;;;33.84;31.55
39789;BME280;25478;42.626;23.320;2023-07-13T11:49:55;93346.31;;;33.89;30.82
39789;BME280;25478;42.626;23.320;2023-07-13T11:52:36;93342.22;;;33.95;31.75
39789;BME280;25478;42.626;23.320;2023-07-13T11:55:08;93340.22;;;33.96;32.02
39789;BME280;25478;42.626;23.320;2023-07-13T11:57:56;93332.47;;;34.00;31.93
39789;BME280;25478;42.626;23.320;2023-07-13T12:00:28;93336.81;;;34.08;31.96
39789;BME280;25478;42.626;23.320;2023-07-13T12:02:56;93330.09;;;34.09;31.13
39789;BME280;25478;42.626;23.320;2023-07-13T12:05:23;93329.03;;;34.12;30.56
39789;BME280;25478;42.626;23.320;2023-07-13T12:07:49;93332.94;;;34.17;31.02
39789;BME280;25478;42.626;23.320;2023-07-13T12:13:04;93318.81;;;34.32;30.32
39789;BME280;25478;42.626;23.320;2023-07-13T12:15:41;93321.31;;;34.30;30.04
39789;BME280;25478;42.626;23.320;2023-07-13T12:18:14;93320.16;;;34.38;29.55
39789;BME280;25478;42.626;23.320;2023-07-13T12:20:40;93318.97;;;34.39;29.49
39789;BME280;25478;42.626;23.320;2023-07-13T12:23:15;93322.31;;;34.46;29.30
39789;BME280;25478;42.626;23.320;2023-07-13T12:25:46;93300.03;;;34.41;29.88
39789;BME280;25478;42.626;23.320;2023-07-13T12:28:23;93302.97;;;34.43;28.49
39789;BME280;25478;42.626;23.320;2023-07-13T12:30:49;93296.31;;;34.39;28.60
39789;BME280;25478;42.626;23.320;2023-07-13T12:33:16;93297.84;;;34.40;28.61
39789;BME280;25478;42.626;23.320;2023-07-13T12:35:46;93295.84;;;34.40;28.95
39789;BME280;25478;42.626;23.320;2023-07-13T12:38:13;93295.56;;;34.38;29.41
39789;BME280;25478;42.626;23.320;2023-07-13T12:40:39;93289.16;;;34.36;29.32
39789;BME280;25478;42.626;23.320;2023-07-13T12:43:14;93289.22;;;34.49;29.45
39789;BME280;25478;42.626;23.320;2023-07-13T12:45:55;93288.69;;;34.51;29.40
39789;BME280;25478;42.626;23.320;2023-07-13T12:48:21;93279.03;;;34.50;29.03
39789;BME280;25478;42.626;23.320;2023-07-13T12:50:48;93279.34;;;34.59;29.00
39789;BME280;25478;42.626;23.320;2023-07-13T12:53:18;93279.56;;;34.61;29.17
39789;BME280;25478;42.626;23.320;2023-07-13T12:55:53;93278.28;;;34.62;28.90
39789;BME280;25478;42.626;23.320;2023-07-13T12:58:32;93279.13;;;34.70;28.93
39789;BME280;25478;42.626;23.320;2023-07-13T13:00:59;93281.78;;;34.76;28.64
39789;BME280;25478;42.626;23.320;2023-07-13T13:03:29;93272.22;;;34.83;29.12
39789;BME280;25478;42.626;23.320;2023-07-13T13:06:06;93262.72;;;34.84;29.51
39789;BME280;25478;42.626;23.320;2023-07-13T13:08:33;93264.72;;;34.83;29.16
39789;BME280;25478;42.626;23.320;2023-07-13T13:10:59;93266.88;;;34.90;29.14
39789;BME280;25478;42.626;23.320;2023-07-13T13:13:26;93264.72;;;34.96;29.83
39789;BME280;25478;42.626;23.320;2023-07-13T13:15:51;93267.91;;;35.01;29.57
39789;BME280;25478;42.626;23.320;2023-07-13T13:18:22;93259.16;;;35.02;29.10
39789;BME280;25478;42.626;23.320;2023-07-13T13:20:50;93257.16;;;35.03;29.53
39789;BME280;25478;42.626;23.320;2023-07-13T13:23:18;93261.56;;;35.06;29.15
39789;BME280;25478;42.626;23.320;2023-07-13T13:25:45;93256.09;;;35.06;28.85